Time;durP1;ratioP1;P1;durP2;ratioP2;P2;SDS_P1;SDS_P2;PMS_P1;PMS_P2;Temp;Humidity;BMP_temperature;BMP_pressure;BME280_temperature;BME280_humidity;BME280_pressure;Samples;Min_cycle;Max_cycle;Signal;HPM_P1;HPM_P2
2022/01/22 00:00:41;;;;;;;7.47;4.80;;;;;;;15.23;40.38;93840.78;4968692;28;20058;-87
2022/01/22 00:03:06;;;;;;;6.65;4.65;;;;;;;15.27;40.19;93846.03;4950360;28;20035;-87
2022/01/22 00:05:33;;;;;;;6.82;4.22;;;;;;;15.24;40.27;93836.09;4951353;28;20043;-88
2022/01/22 00:07:59;;;;;;;5.88;4.57;;;;;;;15.24;40.22;93828.66;4984733;28;20051;-87
2022/01/22 00:10:25;;;;;;;6.03;4.25;;;;;;;15.30;40.24;93820.56;4982587;28;20066;-87
2022/01/22 00:15:18;;;;;;;6.63;5.03;;;;;;;15.25;40.52;93816.56;4964711;28;20121;-86
2022/01/22 00:17:44;;;;;;;8.27;4.20;;;;;;;15.22;40.45;93819.47;4966815;28;20043;-87
2022/01/22 00:20:10;;;;;;;5.60;4.05;;;;;;;15.25;40.45;93813.09;4928920;28;20045;-87
2022/01/22 00:22:37;;;;;;;6.97;4.97;;;;;;;15.27;40.36;93807.91;4945051;29;20635;-86
2022/01/22 00:25:03;;;;;;;5.88;4.35;;;;;;;15.25;40.38;93808.38;4952736;28;20137;-87
2022/01/22 00:27:28;;;;;;;5.65;3.80;;;;;;;15.27;40.09;93788.84;4973693;28;20050;-87
2022/01/22 00:29:54;;;;;;;6.57;4.32;;;;;;;15.24;40.29;93787.81;4962492;29;20055;-86
2022/01/22 00:32:19;;;;;;;7.45;4.97;;;;;;;15.28;40.41;93780.19;4961072;28;20501;-86
2022/01/22 00:34:45;;;;;;;6.68;4.57;;;;;;;15.21;40.75;93780.59;4945929;29;20043;-86
2022/01/22 00:37:10;;;;;;;5.90;3.95;;;;;;;15.20;40.51;93809.06;4963374;28;20039;-87
2022/01/22 00:39:36;;;;;;;6.20;4.57;;;;;;;15.24;40.47;93785.09;4941672;29;20474;-87
2022/01/22 00:42:10;;;;;;;6.18;4.38;;;;;;;15.24;40.54;93787.06;4941567;29;20475;-87
2022/01/22 00:44:35;;;;;;;5.55;3.95;;;;;;;15.27;40.33;93795.03;4926322;29;20032;-87
2022/01/22 00:47:02;;;;;;;6.20;4.30;;;;;;;15.24;40.57;93774.19;4940559;29;20036;-87
2022/01/22 00:49:28;;;;;;;4.75;3.70;;;;;;;15.29;39.91;93784.41;4958272;28;20159;-87
2022/01/22 00:51:53;;;;;;;8.02;5.15;;;;;;;15.29;40.05;93776.25;4975651;28;20060;-87
2022/01/22 00:54:19;;;;;;;4.38;3.88;;;;;;;15.23;40.42;93766.50;4976410;28;20079;-85
2022/01/22 00:56:44;;;;;;;4.13;3.50;;;;;;;15.20;40.13;93759.31;4960800;28;20499;-86
2022/01/22 00:59:09;;;;;;;4.20;3.53;;;;;;;15.25;40.06;93753.91;4960240;28;20050;-87
2022/01/22 01:01:35;;;;;;;6.30;4.22;;;;;;;15.26;40.32;93771.00;4944293;28;20050;-87
2022/01/22 01:04:02;;;;;;;7.63;3.78;;;;;;;15.26;40.25;93749.97;4959998;28;20039;-87
2022/01/22 01:06:28;;;;;;;6.20;4.03;;;;;;;15.22;40.34;93763.03;4961299;28;20182;-86
2022/01/22 01:08:56;;;;;;;5.68;4.45;;;;;;;15.24;40.34;93755.13;4945602;28;20042;-86
2022/01/22 01:11:25;;;;;;;4.80;3.80;;;;;;;15.31;40.00;93757.44;4962809;28;20043;-87
2022/01/22 01:13:56;;;;;;;4.72;4.10;;;;;;;15.29;40.31;93759.16;4946764;28;20039;-87
2022/01/22 01:16:44;;;;;;;5.40;3.72;;;;;;;15.31;40.13;93753.97;4944233;28;20035;-87
2022/01/22 01:35:30;;;;;;;7.15;4.47;;;;;;;15.25;40.46;93734.84;4908941;29;20043;-86
2022/01/22 01:37:59;;;;;;;5.47;4.00;;;;;;;15.21;40.13;93728.88;4927179;29;20138;-87
2022/01/22 01:40:26;;;;;;;5.00;3.97;;;;;;;15.28;40.37;93723.00;4925784;29;20558;-87
2022/01/22 01:45:26;;;;;;;5.88;3.55;;;;;;;15.28;40.29;93730.41;4926154;29;20082;-87
2022/01/22 01:48:02;;;;;;;5.63;3.90;;;;;;;15.22;40.62;93729.63;4941684;29;20050;-87
2022/01/22 01:50:30;;;;;;;5.20;4.22;;;;;;;15.25;40.46;93717.75;4940032;29;20124;-86
2022/01/22 01:55:46;;;;;;;6.25;4.07;;;;;;;15.23;40.61;93728.38;4923579;29;20138;-87
2022/01/22 01:58:12;;;;;;;4.28;3.42;;;;;;;15.23;40.49;93706.59;4909424;29;20087;-87
2022/01/22 02:00:38;;;;;;;4.47;3.83;;;;;;;15.18;40.81;93713.50;4940869;29;20055;-87
2022/01/22 02:03:03;;;;;;;4.97;3.95;;;;;;;15.23;40.31;93717.50;4941828;28;20047;-87
2022/01/22 02:05:28;;;;;;;5.53;3.58;;;;;;;15.22;40.49;93700.41;4960889;28;20252;-87
2022/01/22 02:07:55;;;;;;;5.43;3.80;;;;;;;15.17;40.84;93697.63;4959306;28;20039;-87
2022/01/22 02:10:26;;;;;;;4.50;3.80;;;;;;;15.27;40.46;93688.81;4962608;28;20032;-86
2022/01/22 02:23:42;;;;;;;5.80;4.05;;;;;;;15.25;40.34;93671.47;4960332;28;20050;-86
2022/01/22 02:26:09;;;;;;;4.68;3.95;;;;;;;15.17;40.47;93659.50;4960909;28;20031;-86
2022/01/22 02:28:35;;;;;;;7.82;4.45;;;;;;;15.22;40.23;93665.00;4960418;28;20051;-87
2022/01/22 02:31:12;;;;;;;6.55;4.00;;;;;;;15.20;40.44;93677.59;4963130;28;20482;-87
2022/01/22 02:33:48;;;;;;;5.05;3.75;;;;;;;15.22;40.39;93669.69;4932338;29;20031;-87
2022/01/22 02:41:26;;;;;;;5.53;3.95;;;;;;;15.28;40.75;93657.63;4946991;28;20050;-87
2022/01/22 02:43:54;;;;;;;5.63;3.95;;;;;;;15.26;40.54;93649.19;4944319;28;20122;-87
2022/01/22 02:46:22;;;;;;;4.88;3.53;;;;;;;15.23;40.29;93652.88;4962874;28;20043;-87
2022/01/22 02:48:47;;;;;;;5.43;4.00;;;;;;;15.25;40.40;93652.41;4946076;28;20126;-86
2022/01/22 02:51:15;;;;;;;3.95;3.20;;;;;;;15.25;40.39;93653.16;4946360;28;20371;-86
2022/01/22 02:53:40;;;;;;;4.93;3.90;;;;;;;15.25;40.69;93655.13;4960176;28;20086;-88
2022/01/22 02:56:06;;;;;;;4.70;3.45;;;;;;;15.22;40.59;93662.28;4942739;28;20040;-86
2022/01/22 02:58:31;;;;;;;4.97;3.58;;;;;;;15.24;40.63;93650.91;4958892;28;20317;-87
2022/01/22 03:00:57;;;;;;;3.30;2.80;;;;;;;15.28;40.11;93656.88;4966139;28;20039;-86
2022/01/22 03:03:22;;;;;;;3.83;3.42;;;;;;;15.26;40.32;93664.78;4977615;28;20167;-86
2022/01/22 03:05:48;;;;;;;6.72;4.03;;;;;;;15.18;40.76;93641.94;4961740;28;20086;-87
2022/01/22 03:08:14;;;;;;;3.63;2.83;;;;;;;15.17;40.39;93652.09;4977533;28;20406;-87
2022/01/22 03:10:43;;;;;;;4.18;3.70;;;;;;;15.27;40.22;93650.69;4963864;28;20110;-87
2022/01/22 03:16:08;;;;;;;4.73;3.83;;;;;;;15.20;40.70;93659.28;4978949;28;20654;-86
2022/01/22 03:18:52;;;;;;;5.03;3.60;;;;;;;15.21;40.82;93647.16;4979979;28;20272;-87
2022/01/22 03:29:19;;;;;;;4.40;3.42;;;;;;;15.18;40.92;93639.22;4978295;28;20050;-86
2022/01/22 03:31:45;;;;;;;3.83;3.22;;;;;;;15.22;40.34;93647.91;4978546;28;20394;-87
2022/01/22 03:34:13;;;;;;;5.57;3.45;;;;;;;15.18;40.36;93645.41;4964923;28;20480;-87
2022/01/22 03:36:39;;;;;;;4.82;3.40;;;;;;;15.20;40.52;93644.94;4964417;28;20047;-87
2022/01/22 03:39:07;;;;;;;4.95;3.75;;;;;;;15.12;40.86;93646.63;4974179;28;20046;-86
2022/01/22 03:41:32;;;;;;;4.38;3.53;;;;;;;15.17;40.63;93637.72;4962413;29;20481;-86
2022/01/22 03:43:58;;;;;;;4.22;3.42;;;;;;;15.12;40.62;93630.28;4962592;29;20043;-87
2022/01/22 03:46:25;;;;;;;4.05;3.40;;;;;;;15.23;40.36;93628.38;4946501;28;20047;-87
2022/01/22 03:48:50;;;;;;;3.85;3.20;;;;;;;15.18;40.53;93631.78;4945089;28;20036;-86
2022/01/22 03:51:16;;;;;;;5.15;3.42;;;;;;;15.15;40.47;93638.22;4961360;28;20043;-86
2022/01/22 03:53:41;;;;;;;4.63;3.90;;;;;;;15.11;41.01;93632.25;4961819;28;20095;-86
2022/01/22 03:56:07;;;;;;;3.92;3.17;;;;;;;15.13;40.32;93639.94;4982605;28;20047;-87
2022/01/22 03:58:36;;;;;;;3.47;2.95;;;;;;;15.16;40.25;93656.03;4971544;28;20044;-87
2022/01/22 04:03:57;;;;;;;4.40;3.08;;;;;;;15.17;40.87;93640.44;4980816;28;20076;-88
2022/01/22 04:09:00;;;;;;;4.20;3.13;;;;;;;15.24;40.19;93638.03;4965968;28;20039;-87
2022/01/22 04:11:26;;;;;;;6.90;3.55;;;;;;;15.25;40.17;93652.41;4963899;28;20050;-87
2022/01/22 04:13:53;;;;;;;5.07;3.55;;;;;;;15.18;40.59;93634.50;4967531;28;20494;-86
2022/01/22 04:16:19;;;;;;;3.60;2.85;;;;;;;15.23;40.48;93652.88;4977747;28;20059;-87
2022/01/22 04:24:55;;;;;;;4.13;3.25;;;;;;;15.20;40.42;93637.50;4948922;28;20050;-87
2022/01/22 04:27:11;;;;;;;4.38;3.42;;;;;;;15.18;40.37;93637.25;4938112;29;20040;-87
2022/01/22 04:29:39;;;;;;;5.53;3.33;;;;;;;15.21;40.57;93640.97;4932585;29;20048;-86
2022/01/22 04:32:05;;;;;;;3.80;3.03;;;;;;;15.26;40.15;93645.72;4961053;28;20047;-87
2022/01/22 04:34:31;;;;;;;5.22;3.55;;;;;;;15.27;40.42;93634.34;4946513;29;20046;-87
2022/01/22 04:36:56;;;;;;;3.88;3.17;;;;;;;15.28;39.88;93633.13;4944832;29;20054;-87
2022/01/22 04:39:23;;;;;;;4.07;3.53;;;;;;;15.23;40.73;93633.81;4961110;28;20583;-87
2022/01/22 04:41:52;;;;;;;5.28;3.20;;;;;;;15.19;40.43;93636.00;4964551;28;20066;-87
2022/01/22 04:44:18;;;;;;;4.53;3.33;;;;;;;15.15;40.69;93630.06;4960134;28;20031;-87
2022/01/22 04:49:14;;;;;;;;;;;;;;;;;;;;;
2022/01/22 04:57:05;;;;;;;3.58;3.10;;;;;;;15.20;40.44;93617.69;4943522;28;20067;-87
2022/01/22 04:59:30;;;;;;;5.07;3.20;;;;;;;15.24;40.73;93626.41;4925380;29;20058;-88
2022/01/22 05:01:56;;;;;;;4.90;3.30;;;;;;;15.25;40.46;93625.16;4942548;28;20035;-88
2022/01/22 05:04:23;;;;;;;4.68;3.58;;;;;;;15.19;40.74;93616.19;4926545;28;20055;-87
2022/01/22 05:06:51;;;;;;;4.20;3.50;;;;;;;15.17;40.59;93615.94;4923485;29;20388;-87
2022/01/22 05:09:16;;;;;;;3.30;3.00;;;;;;;15.15;40.83;93619.16;4940663;28;20068;-87
2022/01/22 05:11:44;;;;;;;4.10;3.17;;;;;;;15.20;40.53;93620.41;4941697;28;20047;-87
2022/01/22 05:14:10;;;;;;;3.13;2.47;;;;;;;15.20;40.37;93623.16;4942457;28;20495;-87
2022/01/22 05:16:35;;;;;;;3.78;2.90;;;;;;;15.19;40.54;93621.66;4942639;28;20040;-87
2022/01/22 05:19:08;;;;;;;4.50;3.13;;;;;;;15.18;40.80;93629.06;4941021;28;20043;-88
2022/01/22 05:21:36;;;;;;;4.00;3.15;;;;;;;15.21;40.77;93636.28;4941615;28;20134;-86
2022/01/22 05:24:06;;;;;;;3.85;2.95;;;;;;;15.18;40.42;93634.50;4924469;29;20098;-87
2022/01/22 05:26:56;;;;;;;3.67;2.90;;;;;;;15.22;40.72;93637.78;4941800;28;20043;-87
2022/01/22 05:29:45;;;;;;;4.85;2.88;;;;;;;15.22;40.10;93626.88;4940218;28;20048;-87
2022/01/22 05:37:39;;;;;;;3.05;2.28;;;;;;;15.26;40.22;93632.09;4939060;28;20509;-86
2022/01/22 05:40:05;;;;;;;4.13;3.22;;;;;;;15.17;40.54;93635.00;4952190;28;20035;-86
2022/01/22 05:42:31;;;;;;;3.60;2.75;;;;;;;15.20;40.43;93634.03;4927802;29;20043;-88
2022/01/22 05:44:56;;;;;;;4.18;2.53;;;;;;;15.13;40.69;93637.22;4958764;28;20489;-87
2022/01/22 05:47:25;;;;;;;4.30;3.13;;;;;;;15.16;40.74;93647.88;4941852;28;20098;-86
2022/01/22 05:49:51;;;;;;;4.65;3.45;;;;;;;15.21;40.93;93651.88;4943006;28;20622;-87
2022/01/22 05:52:24;;;;;;;3.90;3.38;;;;;;;15.17;40.60;93652.09;4940581;28;20055;-87
2022/01/22 06:00:04;;;;;;;2.88;2.55;;;;;;;15.19;40.76;93673.38;4958775;28;20042;-87
2022/01/22 06:02:29;;;;;;;4.38;2.72;;;;;;;15.19;40.50;93652.34;4941346;28;20074;-88
2022/01/22 06:04:55;;;;;;;5.30;3.03;;;;;;;15.15;40.62;93657.28;4957278;28;20057;-87
2022/01/22 06:07:20;;;;;;;3.85;3.00;;;;;;;15.16;41.27;93658.00;4955829;28;20042;-86
2022/01/22 06:10:03;;;;;;;4.45;2.88;;;;;;;15.22;40.88;93661.53;4955315;28;20047;-86
2022/01/22 06:12:42;;;;;;;5.03;2.80;;;;;;;15.17;40.60;93667.69;4937302;28;20036;-86
2022/01/22 06:15:08;;;;;;;3.72;3.08;;;;;;;15.23;40.77;93679.38;4954584;28;20051;-87
2022/01/22 06:17:33;;;;;;;3.47;2.70;;;;;;;15.25;40.41;93672.22;4956686;28;20036;-86
2022/01/22 06:19:59;;;;;;;3.67;2.70;;;;;;;15.17;40.75;93682.03;4958046;28;20043;-87
2022/01/22 06:22:24;;;;;;;3.38;2.72;;;;;;;15.22;40.69;93678.63;4938936;28;20055;-87
2022/01/22 06:24:49;;;;;;;3.50;3.20;;;;;;;15.20;40.77;93681.06;4955764;28;20071;-87
2022/01/22 06:27:15;;;;;;;4.28;3.33;;;;;;;15.22;40.35;93683.31;4939523;28;20035;-87
2022/01/22 06:29:40;;;;;;;4.05;3.15;;;;;;;15.22;40.64;93694.97;4939961;28;20051;-86
2022/01/22 06:32:06;;;;;;;4.53;2.88;;;;;;;15.25;40.60;93687.81;4955361;28;20051;-87
2022/01/22 06:34:32;;;;;;;3.67;2.85;;;;;;;15.23;40.48;93685.56;4956255;28;20070;-87
2022/01/22 06:36:57;;;;;;;4.57;3.08;;;;;;;15.22;40.64;93692.22;4954517;28;20035;-86
2022/01/22 06:39:41;;;;;;;4.93;3.10;;;;;;;15.22;40.70;93694.97;4928523;28;20633;-86
2022/01/22 06:42:07;;;;;;;5.28;3.00;;;;;;;15.24;40.53;93703.41;4920548;28;20039;-87
2022/01/22 06:44:34;;;;;;;5.32;3.20;;;;;;;15.24;40.50;93687.06;4920968;29;20049;-86
2022/01/22 06:47:00;;;;;;;4.35;2.60;;;;;;;15.26;40.78;93692.78;4921516;29;20123;-86
2022/01/22 06:49:27;;;;;;;3.50;3.10;;;;;;;15.23;40.49;93704.63;4938610;28;20195;-87
2022/01/22 06:51:55;;;;;;;3.10;2.53;;;;;;;15.18;40.80;93710.75;4951785;28;20403;-86
2022/01/22 06:54:21;;;;;;;3.40;2.97;;;;;;;15.20;40.70;93719.19;4953741;28;20039;-86
2022/01/22 06:56:47;;;;;;;3.08;2.58;;;;;;;15.23;40.42;93718.25;4941072;28;20401;-87
2022/01/22 06:59:13;;;;;;;3.50;2.75;;;;;;;15.21;40.57;93728.13;4935855;28;20043;-87
2022/01/22 07:01:39;;;;;;;3.67;3.13;;;;;;;15.20;40.76;93726.63;4936160;28;20051;-87
2022/01/22 07:04:05;;;;;;;2.92;2.63;;;;;;;15.19;41.04;93736.03;4935524;28;20144;-86
2022/01/22 07:06:30;;;;;;;3.20;2.90;;;;;;;15.26;40.69;93736.34;4952128;28;20039;-86
2022/01/22 07:08:55;;;;;;;4.05;2.53;;;;;;;15.24;40.40;93735.31;4956877;28;20488;-87
2022/01/22 07:11:21;;;;;;;4.30;2.60;;;;;;;15.25;40.54;93723.22;4925100;28;20055;-86
2022/01/22 07:13:46;;;;;;;3.88;2.92;;;;;;;15.25;40.63;93728.66;4939658;28;20044;-87
2022/01/22 07:16:12;;;;;;;3.58;2.42;;;;;;;15.25;40.76;93742.28;4957552;28;20050;-86
2022/01/22 07:18:37;;;;;;;4.00;2.75;;;;;;;15.22;40.28;93735.81;4944155;29;20413;-87
2022/01/22 07:21:09;;;;;;;3.25;2.58;;;;;;;15.23;40.51;93737.31;4945302;28;20035;-87
2022/01/22 07:26:01;;;;;;;3.90;2.78;;;;;;;15.20;40.73;93749.16;4944570;28;20565;-88
2022/01/22 07:28:34;;;;;;;4.63;3.10;;;;;;;15.20;40.64;93756.56;4959463;28;20058;-87
2022/01/22 07:31:01;;;;;;;3.88;2.53;;;;;;;15.25;40.56;93745.00;4959208;28;20035;-87
2022/01/22 07:33:27;;;;;;;3.20;2.47;;;;;;;15.25;41.06;93745.00;4960833;28;20089;-87
2022/01/22 07:35:53;;;;;;;4.60;2.90;;;;;;;15.17;40.84;93733.78;4943427;29;20043;-87
2022/01/22 07:38:18;;;;;;;2.80;2.30;;;;;;;15.22;41.05;93749.44;4958853;28;20043;-87
2022/01/22 07:40:44;;;;;;;2.90;2.60;;;;;;;15.26;40.75;93751.94;4960049;28;20035;-86
2022/01/22 07:43:09;;;;;;;2.72;2.28;;;;;;;15.25;40.62;93762.09;4958777;28;20043;-87
2022/01/22 07:45:35;;;;;;;2.15;1.85;;;;;;;15.29;40.44;93759.16;4960164;28;20070;-87
2022/01/22 07:48:01;;;;;;;3.60;2.72;;;;;;;15.26;40.96;93760.09;4943042;28;20368;-87
2022/01/22 07:50:26;;;;;;;2.90;2.58;;;;;;;15.22;40.56;93757.59;4942035;28;20035;-87
2022/01/22 07:52:52;;;;;;;3.92;2.63;;;;;;;15.19;40.65;93755.09;4958651;28;20431;-87
2022/01/22 07:55:19;;;;;;;4.00;2.80;;;;;;;15.20;40.76;93765.50;4956653;28;20031;-88
2022/01/22 07:57:45;;;;;;;3.47;2.55;;;;;;;15.19;40.51;93758.56;4943799;28;20094;-87
2022/01/22 08:00:19;;;;;;;3.35;2.92;;;;;;;15.17;40.94;93758.28;4938688;28;20431;-87
2022/01/22 08:02:45;;;;;;;3.22;2.67;;;;;;;15.21;40.57;93768.97;4941148;29;20047;-87
2022/01/22 08:05:10;;;;;;;2.78;2.53;;;;;;;15.18;40.99;93773.41;4957084;28;20039;-87
2022/01/22 08:07:36;;;;;;;4.55;2.72;;;;;;;15.19;40.83;93777.63;4942040;29;20062;-88
2022/01/22 08:10:02;;;;;;;3.53;2.67;;;;;;;15.20;40.86;93765.50;4958390;28;20510;-87
2022/01/22 08:12:28;;;;;;;3.78;3.00;;;;;;;15.25;40.79;93758.63;4941870;29;20039;-87
2022/01/22 08:14:54;;;;;;;3.50;2.60;;;;;;;15.22;40.85;93779.38;4943516;29;20046;-86
2022/01/22 08:17:19;;;;;;;3.72;2.65;;;;;;;15.21;40.85;93779.88;4968779;28;20105;-87
2022/01/22 08:19:46;;;;;;;3.63;2.95;;;;;;;15.23;40.76;93778.16;4961095;28;20042;-87
2022/01/22 08:22:11;;;;;;;3.38;2.60;;;;;;;15.26;40.82;93784.63;4959155;28;20113;-87
2022/01/22 08:24:37;;;;;;;3.60;2.67;;;;;;;15.23;40.73;93780.88;4944423;28;20490;-87
2022/01/22 08:29:37;;;;;;;3.05;2.55;;;;;;;15.26;40.71;93785.38;4962196;28;20483;-87
2022/01/22 08:32:09;;;;;;;3.22;2.42;;;;;;;15.23;40.75;93771.97;4947766;28;20043;-87
2022/01/22 08:37:20;;;;;;;3.38;2.60;;;;;;;15.28;40.69;93790.34;4962562;28;20042;-87
2022/01/22 08:39:45;;;;;;;3.80;2.50;;;;;;;15.23;40.43;93788.31;4943662;28;20043;-87
2022/01/22 08:42:11;;;;;;;3.42;2.45;;;;;;;15.24;41.03;93789.78;4942792;28;20060;-87
2022/01/22 08:44:36;;;;;;;2.70;2.08;;;;;;;15.17;40.52;93793.69;4960921;28;20034;-87
2022/01/22 08:47:02;;;;;;;2.50;2.30;;;;;;;15.25;40.79;93799.47;4976990;28;20042;-88
2022/01/22 08:49:28;;;;;;;3.50;2.83;;;;;;;15.26;40.74;93804.44;4941429;28;20043;-87
2022/01/22 08:51:54;;;;;;;4.20;2.72;;;;;;;15.22;40.88;93803.16;4958549;28;20506;-86
2022/01/22 08:54:19;;;;;;;3.40;2.55;;;;;;;15.25;41.07;93802.94;4957621;28;20094;-88
2022/01/22 08:56:45;;;;;;;3.90;2.40;;;;;;;15.27;40.63;93803.22;4944534;28;20046;-87
2022/01/22 08:59:11;;;;;;;2.60;1.95;;;;;;;15.25;40.79;93811.09;4943374;28;20042;-87
2022/01/22 09:01:41;;;;;;;3.50;2.65;;;;;;;15.24;40.97;93809.59;4961504;28;20126;-87
2022/01/22 09:04:06;;;;;;;2.90;2.22;;;;;;;15.27;40.45;93819.53;4960184;28;20117;-87
2022/01/22 09:06:32;;;;;;;2.72;2.28;;;;;;;15.25;40.87;93824.72;4945238;28;20034;-86
2022/01/22 09:09:09;;;;;;;4.72;2.75;;;;;;;15.27;40.75;93827.72;4977396;28;20417;-87
2022/01/22 09:11:35;;;;;;;3.40;2.35;;;;;;;15.27;40.78;93833.16;4948876;28;20042;-87
2022/01/22 09:14:01;;;;;;;2.45;2.15;;;;;;;15.30;40.88;93850.53;4945494;28;20462;-87
2022/01/22 09:16:26;;;;;;;2.40;2.00;;;;;;;15.27;40.69;93843.31;4944308;28;20042;-87
2022/01/22 09:18:53;;;;;;;3.20;2.20;;;;;;;15.28;40.82;93861.91;4944400;28;20043;-87
2022/01/22 09:21:19;;;;;;;2.55;2.22;;;;;;;15.27;40.97;93854.94;4945911;28;20031;-87
2022/01/22 09:23:44;;;;;;;3.25;2.40;;;;;;;15.26;41.03;93858.16;4944137;28;20039;-87
2022/01/22 09:26:10;;;;;;;2.78;2.50;;;;;;;15.30;40.73;93870.34;4958989;28;20050;-86
2022/01/22 09:28:36;;;;;;;3.25;2.65;;;;;;;15.27;41.01;93882.19;4960149;28;20911;-86
2022/01/22 09:31:01;;;;;;;3.05;2.55;;;;;;;15.27;40.87;93882.19;4957901;28;20376;-86
2022/01/22 09:33:27;;;;;;;2.80;2.50;;;;;;;15.30;41.27;93888.66;4959321;28;20035;-87
2022/01/22 09:35:53;;;;;;;2.70;2.35;;;;;;;15.29;40.78;93885.19;4958396;28;20131;-87
2022/01/22 09:38:18;;;;;;;3.78;2.78;;;;;;;15.30;40.98;93891.38;4973836;28;20093;-86
2022/01/22 09:40:44;;;;;;;3.53;2.70;;;;;;;15.28;40.71;93891.09;4942889;28;20042;-86
2022/01/22 09:43:09;;;;;;;3.17;2.50;;;;;;;15.29;40.91;93898.81;4943874;28;20034;-86
2022/01/22 09:45:35;;;;;;;2.40;1.98;;;;;;;15.32;40.92;93905.28;4978450;28;20034;-85
2022/01/22 09:48:00;;;;;;;3.70;2.65;;;;;;;15.33;40.73;93912.22;4955445;28;20031;-85
2022/01/22 09:50:27;;;;;;;4.13;2.40;;;;;;;15.27;40.85;93911.41;4956260;28;20046;-86
2022/01/22 09:52:52;;;;;;;3.75;2.58;;;;;;;15.33;40.63;93909.50;4955445;28;20066;-87
2022/01/22 09:55:18;;;;;;;2.63;2.42;;;;;;;15.31;41.07;93928.28;4924546;28;20038;-85
2022/01/22 09:57:44;;;;;;;2.67;2.30;;;;;;;15.31;40.94;93920.13;4960384;28;20035;-85
2022/01/22 10:00:12;;;;;;;2.95;2.47;;;;;;;15.29;41.04;93923.31;4957994;28;20129;-85
2022/01/22 10:02:45;;;;;;;2.10;1.90;;;;;;;15.25;41.15;93930.19;4938366;29;20043;-85
2022/01/22 10:05:29;;;;;;;2.20;2.00;;;;;;;15.31;40.76;93923.59;4955836;28;20069;-86
2022/01/22 10:08:15;;;;;;;3.65;2.50;;;;;;;15.28;41.07;93921.81;4957202;28;20043;-86
2022/01/22 10:10:40;;;;;;;3.63;2.78;;;;;;;15.30;40.95;93932.25;4959103;28;20110;-86
2022/01/22 10:13:05;;;;;;;2.97;2.28;;;;;;;15.33;40.99;93928.56;4934174;28;20058;-87
2022/01/22 10:15:34;;;;;;;3.00;2.60;;;;;;;15.28;40.93;93937.41;4949181;28;20462;-86
2022/01/22 10:18:02;;;;;;;3.05;2.42;;;;;;;15.31;40.88;93945.38;4950715;28;20039;-86
2022/01/22 10:20:29;;;;;;;3.83;2.30;;;;;;;15.35;40.75;93947.91;4948107;29;20068;-86
2022/01/22 10:23:03;;;;;;;3.45;2.50;;;;;;;15.32;41.04;93954.31;4918610;29;20046;-86
2022/01/22 10:25:31;;;;;;;3.15;2.83;;;;;;;15.32;40.93;93949.59;4950211;28;20062;-87
2022/01/22 10:27:58;;;;;;;3.50;2.72;;;;;;;15.36;40.90;93955.59;4953609;28;20039;-86
2022/01/22 10:30:29;;;;;;;3.72;2.72;;;;;;;15.32;41.17;93957.78;4940065;28;20043;-86
2022/01/22 10:33:11;;;;;;;3.13;2.60;;;;;;;15.35;41.08;93953.34;4921450;29;20089;-85
2022/01/22 10:35:37;;;;;;;2.88;2.47;;;;;;;15.34;40.88;93954.56;4953871;28;20070;-86
2022/01/22 10:38:03;;;;;;;3.70;2.40;;;;;;;15.30;40.99;93952.06;4942314;28;20126;-87
2022/01/22 10:40:30;;;;;;;3.10;2.78;;;;;;;15.36;40.91;93960.31;4937436;28;20391;-86
2022/01/22 10:43:12;;;;;;;4.43;3.10;;;;;;;15.34;40.90;93966.22;4953725;28;20058;-86
2022/01/22 10:45:41;;;;;;;2.95;2.60;;;;;;;15.33;41.02;93962.00;4952767;28;20392;-86
2022/01/22 10:48:17;;;;;;;5.07;3.03;;;;;;;15.33;41.15;93972.91;4934078;28;20461;-86
2022/01/22 10:50:43;;;;;;;3.03;2.17;;;;;;;15.31;41.06;93975.34;4953833;28;20147;-86
2022/01/22 10:53:08;;;;;;;5.25;3.38;;;;;;;15.38;41.00;93982.34;4951768;28;20068;-86
2022/01/22 10:55:57;;;;;;;4.15;3.22;;;;;;;15.33;41.06;93981.06;4935624;28;20035;-86
2022/01/22 10:58:23;;;;;;;3.25;2.47;;;;;;;15.36;41.11;93979.38;4952601;28;20035;-86
2022/01/22 11:00:59;;;;;;;3.53;2.70;;;;;;;15.41;41.12;93993.03;4951020;28;20074;-86
2022/01/22 11:03:26;;;;;;;2.45;2.25;;;;;;;15.38;40.86;93977.63;4951377;28;20039;-87
2022/01/22 11:05:52;;;;;;;4.60;3.15;;;;;;;15.37;40.96;93997.94;4951620;28;20383;-86
2022/01/22 11:08:18;;;;;;;3.35;2.70;;;;;;;15.41;40.64;94003.19;4953825;28;20082;-86
2022/01/22 11:10:44;;;;;;;3.00;2.70;;;;;;;15.36;41.26;94003.88;4935785;28;20031;-86
2022/01/22 11:13:09;;;;;;;4.80;3.88;;;;;;;15.36;41.01;94001.91;4952269;28;20035;-87
2022/01/22 11:15:36;;;;;;;3.08;2.72;;;;;;;15.38;40.89;94007.59;4952295;28;20090;-85
2022/01/22 11:18:02;;;;;;;3.45;2.63;;;;;;;15.43;40.99;94001.47;4952330;28;20232;-86
2022/01/22 11:20:27;;;;;;;4.68;2.90;;;;;;;15.40;41.07;94010.59;4951740;28;20035;-87
2022/01/22 11:22:53;;;;;;;3.40;2.75;;;;;;;15.41;41.00;94011.34;4935482;28;20043;-86
2022/01/22 11:25:19;;;;;;;4.03;3.47;;;;;;;15.42;41.22;94015.59;4931257;28;20114;-86
2022/01/22 11:27:46;;;;;;;3.70;2.53;;;;;;;15.42;40.86;94018.31;4899868;29;20068;-86
2022/01/22 11:30:13;;;;;;;4.57;3.03;;;;;;;15.40;41.25;94018.03;4900113;29;20203;-86
2022/01/22 11:32:49;;;;;;;3.92;2.88;;;;;;;15.36;41.28;94031.88;4915519;29;20046;-86
2022/01/22 11:35:22;;;;;;;3.25;2.85;;;;;;;15.40;41.01;94031.66;4900054;28;20054;-86
2022/01/22 11:38:00;;;;;;;5.93;2.92;;;;;;;15.41;41.01;94033.16;4899605;29;20635;-85
2022/01/22 11:40:27;;;;;;;3.20;2.67;;;;;;;15.42;40.98;94051.75;4884183;29;20550;-86
2022/01/22 11:43:09;;;;;;;4.03;2.95;;;;;;;15.41;41.11;94035.88;4915766;29;20040;-86
2022/01/22 11:45:49;;;;;;;5.80;3.28;;;;;;;15.43;41.03;94036.91;4930358;28;20050;-86
2022/01/22 11:48:24;;;;;;;4.40;3.55;;;;;;;15.41;41.09;94041.31;4896403;29;20095;-86
2022/01/22 11:50:51;;;;;;;3.90;2.78;;;;;;;15.47;41.15;94046.84;4895790;29;20499;-87
2022/01/22 11:53:29;;;;;;;4.10;3.25;;;;;;;15.44;41.13;94054.00;4913283;29;20059;-87
2022/01/22 11:56:10;;;;;;;7.40;4.13;;;;;;;15.45;40.93;94050.06;4922792;29;20040;-87
2022/01/22 11:58:58;;;;;;;5.20;3.72;;;;;;;15.42;41.13;94059.91;4948529;28;20051;-86
2022/01/22 12:01:46;;;;;;;4.57;3.45;;;;;;;15.45;40.83;94071.84;4953310;28;20063;-86
2022/01/22 12:04:14;;;;;;;8.07;5.53;;;;;;;15.44;41.16;94067.63;4955180;28;20134;-86
2022/01/22 12:07:02;;;;;;;5.05;3.40;;;;;;;15.37;41.11;94068.75;4952046;28;20125;-86
2022/01/22 12:09:43;;;;;;;4.07;3.22;;;;;;;15.41;41.30;94076.75;4954275;28;20560;-86
2022/01/22 12:15:19;;;;;;;5.22;3.40;;;;;;;15.38;41.46;94074.97;4952390;28;20062;-86
2022/01/22 12:17:54;;;;;;;4.75;3.85;;;;;;;15.41;41.30;94087.63;4937912;28;20039;-87
2022/01/22 12:23:00;;;;;;;;;;;;;;;15.40;41.07;94067.81;4955471;28;20047;-86
2022/01/22 12:25:28;;;;;;;7.20;4.03;;;;;;;15.43;40.77;94085.94;4953231;28;19919;-87
2022/01/22 12:27:54;;;;;;;5.78;3.78;;;;;;;15.38;41.36;94080.41;4955317;28;20035;-86
2022/01/22 12:30:39;;;;;;;5.85;4.10;;;;;;;15.38;41.44;94083.13;4937228;28;20051;-86
2022/01/22 12:33:11;;;;;;;5.47;4.10;;;;;;;15.42;41.24;94108.22;4938049;28;20034;-87
2022/01/22 12:35:39;;;;;;;3.80;3.20;;;;;;;15.41;41.45;94095.81;4939950;28;20040;-86
2022/01/22 12:40:56;;;;;;;5.25;3.85;;;;;;;15.41;41.40;94110.19;4935597;28;20127;-86
2022/01/22 12:43:31;;;;;;;4.25;3.70;;;;;;;15.41;41.35;94103.97;4920012;28;20040;-87
2022/01/22 12:46:01;;;;;;;8.75;5.95;;;;;;;15.34;41.54;94109.84;4935001;28;20086;-87
2022/01/22 12:48:33;;;;;;;5.90;4.05;;;;;;;15.41;41.58;94098.53;4934152;28;20032;-87
2022/01/22 12:51:00;;;;;;;5.30;3.80;;;;;;;15.46;41.29;94108.75;4935007;28;20036;-86
2022/01/22 12:53:25;;;;;;;6.00;4.85;;;;;;;15.41;41.59;94112.91;4902890;29;20356;-87
2022/01/22 12:58:26;;;;;;;5.65;3.95;;;;;;;15.41;41.63;94114.88;4943149;28;20038;-86
2022/01/22 13:00:53;;;;;;;5.47;3.67;;;;;;;15.45;41.17;94112.72;4938530;28;20054;-87
2022/01/22 13:03:34;;;;;;;8.48;5.95;;;;;;;15.43;41.06;94107.75;4952920;28;20486;-86
2022/01/22 13:06:00;;;;;;;5.80;3.72;;;;;;;15.47;41.48;94115.72;4921126;29;20056;-86
2022/01/22 13:08:28;;;;;;;7.32;5.10;;;;;;;15.39;41.41;94109.91;4938048;28;20039;-86
2022/01/22 13:10:55;;;;;;;4.20;3.45;;;;;;;15.36;41.69;94108.16;4955000;28;20082;-86
2022/01/22 13:13:20;;;;;;;8.38;4.47;;;;;;;15.42;41.06;94113.66;4953773;28;20035;-87
2022/01/22 13:15:46;;;;;;;5.65;4.32;;;;;;;15.42;41.55;94110.94;4953850;28;20054;-86
2022/01/22 13:18:11;;;;;;;6.53;4.10;;;;;;;15.41;41.55;94101.25;4953052;28;20037;-87